Thunder radar more information blitzortung!


Radar de pluja more information rain snow radar


Visita la nostra xarxa de llocs de meteo:

Template documentation
and downloads

And another site



No particular awareness of the weather is required.    There are no Weather-warnings

Pagina Historial Weather Underground text

Diari Resum Juny 26, 2017 Unitats:  Imperial    Mètric   Tant
« Previous Dia
SegĂźent Dia »
Diari Setmana Mensual Anual Personalitzada
  Maxima: Minima: Media:
Temperatura: 94.3 °F 68.7 °F 83.3 °F
Punt de rosada: 66 °F 49.3 °F 56.8 °F
Humitat: 86 % 25 % 44 %
Wind Speed: 17.3 mph 0 mph 4.5 mph
RĂ fegues de vent: 17.3 mph - -
Vent:- - South
Pression baro: 29.9 in 29.7 in -
Precipitacions: 0 in    
Historical Graphs
 
 
Dades de taula per Juny 26, 2017
Temps Temperatura Punt de rosada Pression baro Vent Wind Speed RĂ fegues de vent Humitat Rainfall Rate (Hourly)
00:00 70 °F 65.7 °F 29.9 in Calm   1 mph 86 % 0 in
00:01 73.8 °F 66 °F 29.9 in ENE 2.3 mph 2.3 mph 77 % 0 in
00:10 70 °F 65.3 °F 29.9 in SSW 2 mph 3 mph 85 % 0 in
00:20 69.6 °F 64.9 °F 29.9 in SW 1 mph 2 mph 85 % 0 in
00:30 69.4 °F 64.8 °F 29.9 in WSW 2 mph 3 mph 85 % 0 in
00:40 69.4 °F 64.8 °F 29.9 in WSW 1 mph 2 mph 85 % 0 in
00:50 69.4 °F 64.8 °F 29.9 in Calm     85 % 0 in
01:00 69.4 °F 64.8 °F 29.9 in WSW 1 mph 2 mph 85 % 0 in
01:10 69.4 °F 64.8 °F 29.9 in SW 1 mph 2 mph 85 % 0 in
01:20 69.4 °F 65.1 °F 29.9 in SW 1 mph 2 mph 86 % 0 in
01:30 69.4 °F 64.8 °F 29.9 in NE 1 mph 3 mph 85 % 0 in
01:40 69.3 °F 64.2 °F 29.8 in Calm   1 mph 84 % 0 in
01:50 68.9 °F 63.9 °F 29.8 in West 1 mph 3 mph 84 % 0 in
02:00 68.7 °F 63.3 °F 29.9 in West 1 mph 3 mph 83 % 0 in
02:10 68.9 °F 63.5 °F 29.8 in NE 7 mph 7 mph 83 % 0 in
02:20 69.3 °F 64.2 °F 29.8 in NE 2 mph 9 mph 84 % 0 in
02:30 69.1 °F 64 °F 29.8 in ENE 1 mph 4 mph 84 % 0 in
02:40 69.1 °F 64 °F 29.8 in WNW 2 mph 2 mph 84 % 0 in
02:50 69.3 °F 63.9 °F 29.8 in WSW 2 mph 3 mph 83 % 0 in
03:00 69.3 °F 63.9 °F 29.8 in SW 1 mph 3 mph 83 % 0 in
03:10 69.1 °F 63.3 °F 29.9 in SW 3 mph 4 mph 82 % 0 in
03:20 69.3 °F 63.1 °F 29.9 in SSW 6 mph 6 mph 81 % 0 in
03:30 69.3 °F 63.1 °F 29.9 in SW 2 mph 4 mph 81 % 0 in
03:40 69.3 °F 62.8 °F 29.8 in Calm   4 mph 80 % 0 in
03:50 69.6 °F 62.8 °F 29.8 in NE 1 mph 1 mph 79 % 0 in
04:00 70.2 °F 63 °F 29.9 in NE 2 mph 4 mph 78 % 0 in
04:10 71.4 °F 64.2 °F 29.8 in NNE 5 mph 6 mph 78 % 0 in
04:20 72.9 °F 65.1 °F 29.8 in NE 5 mph 8 mph 77 % 0 in
04:30 74.1 °F 65.7 °F 29.9 in NE 3 mph 5 mph 75 % 0 in
04:40 75.2 °F 65.8 °F 29.8 in NE 3 mph 5 mph 73 % 0 in
04:50 75.6 °F 64.8 °F 29.8 in NE 5 mph 8 mph 69 % 0 in
05:00 75.6 °F 63.9 °F 29.8 in NE 6 mph 9 mph 67 % 0 in
05:10 76.8 °F 64.6 °F 29.8 in NE 3 mph 5 mph 66 % 0 in
05:20 78.4 °F 63.9 °F 29.8 in NE 3 mph 5 mph 61 % 0 in
05:30 79.7 °F 63.7 °F 29.8 in NE 3 mph 5 mph 58 % 0 in
10:31 80.8 °F 62.6 °F 29.8 in NE 4 mph 4 mph 54 % 0 in
10:36 81.7 °F 61.2 °F 29.8 in NNE 8.1 mph 8.1 mph 50 % 0 in
10:41 81.5 °F 60.4 °F 29.8 in NNW 10.5 mph 10.5 mph 49 % 0 in
10:46 81.7 °F 60.6 °F 29.8 in NE 5.4 mph 5.4 mph 49 % 0 in
10:51 81.9 °F 61.3 °F 29.8 in NE 6 mph 6 mph 50 % 0 in
10:56 82.8 °F 62.2 °F 29.8 in NE 3.5 mph 3.5 mph 50 % 0 in
11:01 82.4 °F 61.3 °F 29.8 in NNE 9.2 mph 9.2 mph 49 % 0 in
11:06 83.1 °F 62.1 °F 29.8 in NNE 6.4 mph 6.4 mph 49 % 0 in
11:11 83.3 °F 62.1 °F 29.8 in East 5.8 mph 5.8 mph 49 % 0 in
11:17 82.9 °F 61.2 °F 29.7 in ENE 5.8 mph 5.8 mph 48 % 0 in
11:22 82.6 °F 61 °F 29.7 in NNE 5.8 mph 5.8 mph 48 % 0 in
11:27 83.8 °F 62.1 °F 29.8 in NNE 5.8 mph 5.8 mph 48 % 0 in
11:32 83.7 °F 61.9 °F 29.8 in NNE 3.6 mph 3.6 mph 48 % 0 in
11:37 83.3 °F 61.5 °F 29.8 in East 5.8 mph 5.8 mph 48 % 0 in
11:42 84.4 °F 61.9 °F 29.8 in NNE 4 mph 4 mph 47 % 0 in
11:47 84.4 °F 61.3 °F 29.8 in ENE 3.5 mph 3.5 mph 46 % 0 in
11:52 85.3 °F 62.8 °F 29.8 in West 2.3 mph 2.3 mph 47 % 0 in
11:57 86 °F 63.3 °F 29.8 in NW 2.4 mph 2.6 mph 47 % 0 in
12:02 86.5 °F 62.8 °F 29.8 in SSE 3.5 mph 3.5 mph 45 % 0 in
12:07 87.1 °F 62.4 °F 29.8 in ESE 4.6 mph 4.6 mph 44 % 0 in
12:12 86.7 °F 61 °F 29.8 in SE 4.6 mph 4.6 mph 42 % 0 in
12:17 87.6 °F 59.5 °F 29.8 in ESE 3.1 mph 3.1 mph 39 % 0 in
12:22 87.1 °F 60.4 °F 29.8 in WSW 3.5 mph 3.5 mph 41 % 0 in
12:23 87.1 °F 60.4 °F 29.8 in WSW 3.5 mph 3.5 mph 41 % 0 in
12:28 87.8 °F 60.4 °F 29.8 in SSW 0.9 mph   40 % 0 in
12:33 87.8 °F 59 °F 29.8 in ESE 3.5 mph 3.5 mph 38 % 0 in
12:38 88 °F 57.7 °F 29.8 in South 3.5 mph 3.5 mph 36 % 0 in
12:43 89.8 °F 60.8 °F 29.7 in East 1.6 mph   38 % 0 in
12:48 88.2 °F 58.6 °F 29.7 in ENE 3.5 mph 3.5 mph 37 % 0 in
12:53 88.2 °F 59.4 °F 29.7 in NNE 4.6 mph 4.6 mph 38 % 0 in
12:58 88.7 °F 59.2 °F 29.8 in ESE 5.8 mph 5.8 mph 37 % 0 in
13:03 88.7 °F 58.3 °F 29.8 in NE 6.9 mph 6.9 mph 36 % 0 in
13:08 88.3 °F 57.2 °F 29.8 in SE 9.2 mph 9.2 mph 35 % 0 in
13:13 88 °F 54.3 °F 29.8 in SSE 12.7 mph 12.7 mph 32 % 0 in
13:18 88.7 °F 55 °F 29.8 in SE 5.8 mph 8.1 mph 32 % 0 in
13:23 88.7 °F 54.1 °F 29.8 in ESE 11.8 mph 11.8 mph 31 % 0 in
13:28 89.8 °F 55.9 °F 29.8 in SSW 6.9 mph 6.9 mph 32 % 0 in
13:33 90.1 °F 57.2 °F 29.8 in SSE 8.1 mph 8.1 mph 33 % 0 in
13:38 89.6 °F 58.3 °F 29.8 in East 9.2 mph 9.2 mph 35 % 0 in
13:43 88.3 °F 56.5 °F 29.8 in ESE 17.3 mph 17.3 mph 34 % 0 in
13:48 89.1 °F 56.1 °F 29.8 in SE 5.8 mph 5.8 mph 33 % 0 in
13:53 89.4 °F 55.8 °F 29.8 in ESE 7.8 mph 7.8 mph 32 % 0 in
13:58 89.6 °F 55.8 °F 29.8 in SW 6.9 mph 6.9 mph 32 % 0 in
14:03 90.3 °F 56.5 °F 29.8 in SSE 10.4 mph 10.4 mph 32 % 0 in
14:08 89.1 °F 55.4 °F 29.8 in ESE 10.4 mph 10.4 mph 32 % 0 in
14:13 88.3 °F 54 °F 29.8 in ESE 11.5 mph 11.5 mph 31 % 0 in
14:18 89.2 °F 54.7 °F 29.8 in East 8.1 mph 8.1 mph 31 % 0 in
14:23 88.7 °F 54.1 °F 29.8 in NNE 9.7 mph 9.7 mph 31 % 0 in
14:28 89.4 °F 54.9 °F 29.8 in SSE 9.2 mph 9.2 mph 31 % 0 in
14:33 90 °F 54.3 °F 29.8 in South 5.9 mph 5.9 mph 30 % 0 in
14:38 91.2 °F 55.6 °F 29.8 in South 4.6 mph 4.6 mph 30 % 0 in
14:43 90.7 °F 55.9 °F 29.8 in SW 5.6 mph 5.6 mph 31 % 0 in
14:48 91.6 °F 54.9 °F 29.8 in SE 5.8 mph 5.8 mph 29 % 0 in
14:53 91 °F 55.2 °F 29.8 in South 5.8 mph 5.8 mph 30 % 0 in
14:58 91.2 °F 55.6 °F 29.8 in South 4.6 mph 4.6 mph 30 % 0 in
15:03 92.7 °F 55.8 °F 29.8 in SW 6.9 mph 6.9 mph 29 % 0 in
15:08 92.3 °F 55.4 °F 29.8 in WSW 5.8 mph 5.8 mph 29 % 0 in
15:13 92.5 °F 55.6 °F 29.8 in West 6.9 mph 6.9 mph 29 % 0 in
15:18 92.3 °F 55.4 °F 29.8 in South 8.1 mph 8.1 mph 29 % 0 in
15:23 91.8 °F 55 °F 29.8 in SSW 6.9 mph 6.9 mph 29 % 0 in
15:28 91 °F 53.4 °F 29.8 in SW 7.6 mph 7.6 mph 28 % 0 in
15:33 90.5 °F 52.9 °F 29.8 in SSE 5.8 mph 5.8 mph 28 % 0 in
15:38 91.2 °F 53.6 °F 29.8 in SSW 8.1 mph 8.1 mph 28 % 0 in
15:43 91.2 °F 53.6 °F 29.8 in SSE 10.4 mph 10.4 mph 28 % 0 in
15:48 91 °F 53.4 °F 29.8 in SW 6.9 mph 6.9 mph 28 % 0 in
15:53 91.6 °F 54 °F 29.8 in SW 4.6 mph 4.6 mph 28 % 0 in
15:58 92.1 °F 54.3 °F 29.8 in WSW 5.8 mph 5.8 mph 28 % 0 in
16:03 91.8 °F 54 °F 29.8 in South 3.5 mph 3.5 mph 28 % 0 in
16:08 91.9 °F 54.1 °F 29.8 in WSW 4.6 mph 4.6 mph 28 % 0 in
16:13 92.1 °F 53.2 °F 29.8 in South 5.4 mph 5.4 mph 27 % 0 in
16:18 93 °F 54.1 °F 29.8 in SW 4.6 mph 4.6 mph 27 % 0 in
16:23 93.2 °F 54.3 °F 29.8 in West 4.6 mph 4.6 mph 27 % 0 in
16:28 93 °F 54.1 °F 29.7 in SW 9.2 mph 9.2 mph 27 % 0 in
16:33 93.4 °F 54.3 °F 29.7 in SW 4.6 mph 4.6 mph 27 % 0 in
16:38 93.4 °F 54.3 °F 29.7 in WSW 9.2 mph 9.2 mph 27 % 0 in
16:43 92.5 °F 53.6 °F 29.7 in WSW 4.6 mph 4.6 mph 27 % 0 in
16:48 93 °F 53.1 °F 29.7 in WSW 4.6 mph 4.6 mph 26 % 0 in
16:53 94.3 °F 55.2 °F 29.7 in South 3.5 mph 3.5 mph 27 % 0 in
16:58 93.6 °F 53.4 °F 29.7 in ESE 2.3 mph 2.3 mph 26 % 0 in
17:03 93.6 °F 53.4 °F 29.7 in SSE 2.3 mph 2.3 mph 26 % 0 in
17:08 94.1 °F 54 °F 29.7 in South 4.6 mph 4.6 mph 26 % 0 in
17:13 92.1 °F 52.3 °F 29.7 in ESE 5.8 mph 5.8 mph 26 % 0 in
17:18 91.2 °F 51.4 °F 29.7 in ENE 5.8 mph 5.8 mph 26 % 0 in
17:23 90.5 °F 50.9 °F 29.7 in SW 10.4 mph 10.4 mph 26 % 0 in
17:28 90.7 °F 51.1 °F 29.7 in SE 8.1 mph 8.1 mph 26 % 0 in
17:33 91.2 °F 51.4 °F 29.7 in East 5.8 mph 5.8 mph 26 % 0 in
17:38 90.7 °F 50 °F 29.7 in SSE 5.8 mph 5.8 mph 25 % 0 in
17:43 90.3 °F 50.7 °F 29.7 in ESE 6.2 mph 6.2 mph 26 % 0 in
17:48 89.8 °F 49.3 °F 29.7 in SE 6 mph 6 mph 25 % 0 in
17:53 90.3 °F 49.6 °F 29.7 in SSW 5.8 mph 5.8 mph 25 % 0 in
17:58 91 °F 50.4 °F 29.7 in SSW 4.6 mph 4.6 mph 25 % 0 in
18:03 90.3 °F 50.7 °F 29.7 in East 5.8 mph 5.8 mph 26 % 0 in
18:08 89.8 °F 49.3 °F 29.7 in ESE 4.3 mph 4.3 mph 25 % 0 in
18:13 90.1 °F 49.6 °F 29.7 in East 4.6 mph 4.6 mph 25 % 0 in
18:18 90 °F 49.5 °F 29.7 in East 5.8 mph 5.8 mph 25 % 0 in
18:23 90.5 °F 50.9 °F 29.7 in SW 5.8 mph 5.8 mph 26 % 0 in
18:28 91.2 °F 51.4 °F 29.7 in SSE 4.6 mph 4.6 mph 26 % 0 in
18:33 91 °F 51.4 °F 29.7 in South 3.5 mph 3.5 mph 26 % 0 in
18:38 91.6 °F 50.7 °F 29.7 in SW 4.6 mph 4.6 mph 25 % 0 in
18:43 90.9 °F 51.3 °F 29.7 in SSW 3.5 mph 3.5 mph 26 % 0 in
18:48 90.9 °F 51.3 °F 29.7 in SW 3.5 mph 3.5 mph 26 % 0 in
18:53 90.3 °F 50.7 °F 29.7 in SW 5.9 mph 5.9 mph 26 % 0 in
18:58 90 °F 50.5 °F 29.7 in WSW 5.8 mph 5.8 mph 26 % 0 in
19:03 89.2 °F 49.8 °F 29.7 in SW 8.1 mph 8.1 mph 26 % 0 in
19:08 88.7 °F 50.4 °F 29.7 in SSW 6 mph 6 mph 27 % 0 in
19:13 88.5 °F 50.4 °F 29.7 in WSW 4.6 mph 4.6 mph 27 % 0 in
19:18 88.5 °F 50.4 °F 29.7 in SW 5.9 mph 5.9 mph 27 % 0 in
19:23 88.5 °F 50.4 °F 29.7 in SSW 4.6 mph 4.6 mph 27 % 0 in
19:28 88 °F 49.8 °F 29.7 in WSW 5.8 mph 5.8 mph 27 % 0 in
19:33 88 °F 49.8 °F 29.7 in WSW 9.8 mph 9.8 mph 27 % 0 in
19:38 87.8 °F 49.6 °F 29.7 in WSW 4.6 mph 4.7 mph 27 % 0 in
19:43 87.4 °F 49.3 °F 29.7 in SW 5.8 mph 5.8 mph 27 % 0 in
19:48 87.3 °F 50.2 °F 29.7 in SSW 5.8 mph 5.8 mph 28 % 0 in
19:53 87.1 °F 50 °F 29.7 in South 6.9 mph 6.9 mph 28 % 0 in
19:58 86.9 °F 49.8 °F 29.7 in SW 3.5 mph 3.5 mph 28 % 0 in
20:03 86.5 °F 49.6 °F 29.7 in SSW 6.2 mph 6.2 mph 28 % 0 in
20:08 86.2 °F 49.3 °F 29.7 in SSW 4.6 mph 4.6 mph 28 % 0 in
20:13 85.8 °F 49.8 °F 29.7 in WSW 5.8 mph 5.8 mph 29 % 0 in
20:18 85.5 °F 49.6 °F 29.7 in SW 5.8 mph 5.9 mph 29 % 0 in
20:19 85.5 °F 50.5 °F 29.7 in SSW 6.9 mph 6.9 mph 30 % 0 in
20:24 84.9 °F 50 °F 29.7 in SSW 5.8 mph 5.8 mph 30 % 0 in
20:29 84.7 °F 50.7 °F 29.7 in South 5.8 mph 5.8 mph 31 % 0 in
20:34 84.4 °F 50.4 °F 29.7 in SSW 6.9 mph 6.9 mph 31 % 0 in
20:39 83.8 °F 51.6 °F 29.7 in West 6.9 mph 6.9 mph 33 % 0 in
20:44 83.7 °F 52.3 °F 29.7 in ESE 3.3 mph 3.3 mph 34 % 0 in
20:49 83.5 °F 52.9 °F 29.7 in SW 1.2 mph   35 % 0 in
20:51 83.3 °F 52.9 °F 29.7 in Calm     35 % 0 in
20:56 82.9 °F 52.5 °F 29.7 in SW 4.6 mph 4.6 mph 35 % 0 in
21:01 82.8 °F 53.1 °F 29.7 in WSW 3.8 mph 3.8 mph 36 % 0 in
21:05 82.4 °F 53.4 °F 29.7 in SW 3.5 mph 3.5 mph 37 % 0 in
21:11 82.2 °F 54.1 °F 29.7 in South 2.3 mph 2.3 mph 38 % 0 in
21:16 81.9 °F 53.8 °F 29.7 in West 1.2 mph 1.2 mph 38 % 0 in
21:20 81.5 °F 54.1 °F 29.7 in WSW 3.3 mph 3.3 mph 39 % 0 in
21:21 81.5 °F 54.1 °F 29.7 in WSW 4.6 mph 4.6 mph 39 % 0 in
21:26 81.1 °F 54.5 °F 29.7 in SW 3.1 mph 3.1 mph 40 % 0 in
21:31 80.8 °F 54.9 °F 29.7 in SE 1.2 mph 1.2 mph 41 % 0 in
21:36 80.4 °F 55.9 °F 29.7 in SW 1.2 mph 1.2 mph 43 % 0 in
21:41 80.2 °F 55.8 °F 29.7 in WSW 1.4 mph   43 % 0 in
21:46 80.1 °F 55.6 °F 29.8 in SW 4.6 mph 4.6 mph 43 % 0 in
21:51 79.7 °F 55.9 °F 29.8 in SW 2.9 mph 2.9 mph 44 % 0 in
21:56 79.5 °F 55.8 °F 29.8 in SW 1.2 mph 1.2 mph 44 % 0 in
22:01 79.3 °F 56.1 °F 29.8 in WSW 1.2 mph 1.2 mph 45 % 0 in
22:06 79 °F 56.5 °F 29.8 in Calm     46 % 0 in
22:11 78.8 °F 56.3 °F 29.8 in Calm     46 % 0 in
22:16 78.6 °F 56.7 °F 29.8 in South 4.6 mph 4.6 mph 47 % 0 in
22:21 78.4 °F 56.5 °F 29.8 in SW 2.3 mph 2.3 mph 47 % 0 in
22:26 78.3 °F 56.5 °F 29.8 in WSW 2.3 mph 2.3 mph 47 % 0 in
22:31 78.1 °F 56.8 °F 29.8 in WSW 2.3 mph 2.3 mph 48 % 0 in
22:36 77.9 °F 56.7 °F 29.8 in SW 1.4 mph 1.6 mph 48 % 0 in
22:41 77.9 °F 57.2 °F 29.8 in WSW 2.4 mph 2.4 mph 49 % 0 in
22:46 77.7 °F 57 °F 29.8 in SW 2.3 mph 2.3 mph 49 % 0 in
22:50 71.6 °F 61 °F 29.8 in NE 3 mph 3 mph 69 % 0 in
22:51 77.5 °F 57.4 °F 29.8 in West 2.3 mph 2.3 mph 50 % 0 in
22:56 77.5 °F 57.4 °F 29.8 in WSW 2.3 mph 2.3 mph 50 % 0 in
23:00 71.4 °F 61.2 °F 29.8 in NE 2 mph 2 mph 70 % 0 in
23:01 77.4 °F 57.4 °F 29.8 in WNW 3.5 mph 3.5 mph 50 % 0 in
23:06 77.2 °F 57.7 °F 29.8 in WSW 2.9 mph 2.9 mph 51 % 0 in
23:10 71.2 °F 61 °F 29.8 in Calm   2 mph 70 % 0 in
23:11 77 °F 57.9 °F 29.8 in WNW 2.3 mph 2.3 mph 52 % 0 in
23:16 77 °F 57.9 °F 29.8 in West 2.3 mph 2.3 mph 52 % 0 in
23:20 71.1 °F 60.8 °F 29.7 in Calm   2 mph 70 % 0 in
23:21 76.8 °F 58.8 °F 29.8 in WSW 3.5 mph 3.5 mph 54 % 0 in
23:26 76.6 °F 58.6 °F 29.8 in West 2.3 mph 2.3 mph 54 % 0 in
23:30 70.9 °F 61 °F 29.7 in Calm   1 mph 71 % 0 in
23:31 76.6 °F 59.4 °F 29.8 in WSW 2.4 mph 2.4 mph 55 % 0 in
23:36 76.5 °F 59.2 °F 29.8 in WNW 2.3 mph 2.3 mph 55 % 0 in
23:40 70.5 °F 60.6 °F 29.8 in NE 1 mph 2 mph 71 % 0 in
23:41 76.3 °F 58.8 °F 29.8 in WSW 3.5 mph 3.5 mph 55 % 0 in
23:46 76.3 °F 59.4 °F 29.8 in West 2.3 mph 2.4 mph 56 % 0 in
23:50 70.3 °F 60.4 °F 29.8 in Calm   1 mph 71 % 0 in
23:51 76.1 °F 59.4 °F 29.8 in West 2.3 mph 2.3 mph 56 % 0 in
23:56 76.1 °F 59.4 °F 29.8 in WSW 3.5 mph 3.5 mph 56 % 0 in
Meteo Sesrovires
Elogis d' Weather Underground - 3.5 mb

Guio original per  Jim McMurry - jmcmurry@mwt.net Adaptat per a la plantilla per  Wim van der Kuil - Leuven-Template.eu

Trobareu la nostra informacio del temps tambe a:

Weather Underground

AWEKAS